Portada
METAR-TAF:

METAR-TAF

Aeroports :

Àqaba, Jordània

latitud: 29-38N, longitud: 035-01E, altitud: 53 m

Observació

L'informe es va fer fa 1 hora i 11 minuts, a les 05:00 UTC
Vent 4 kt del Nord/Nord-Oest
Temperatura 14°C
Humitat 82%
Pressió 1017 hPa
Visibilitat: 4000 m
Escasses núvols a una alçada de 2500 ft

METAR: OJAQ 060500Z 33004KT 4000 FEW025 14/11 Q1017 NOSIG

Hora: 08:11 (06:11 UTC)

Pronòstic

L'informe es va fer fa 1 hora i 30 minuts, a les 04:41 UTC
Pronòstic vàlid del 06 a les 06 UTC al 07 a les 12 UTC
Vent 14 kt del Nord
Visibilitat 10 km o més
Núvols disperses a una alçada de 4500 ft

TAF: OJAQ 060441Z 0606/0712 01014KT 9999 SCT045

Observacions i pronòstics meteorològics de més de 4000 aeroports (METAR i TAF).

Les estacions disponibles són els punts grocs i vermells al mapa.

Posi el ratolí al punt desitjat per veure el nom de l'estació.

Feu clic per veure les observacions i els pronòstics meteorològics.

Per canviar el mapa: feu clic els botons verds amb una creu de color negre per apropar; al botó verd amb un guió per allunyar la imatge; o en les fletxes verdes per a mapes adjacents.


METAR-TAF: